sensor_id;sensor_type;location;lat;lon;timestamp;temperature;humidity
16863;DHT22;52193;48.216;-1.698;2024-02-14T00:01:11;14.50;99.90
16863;DHT22;52193;48.216;-1.698;2024-02-14T00:03:38;14.50;99.90
16863;DHT22;52193;48.216;-1.698;2024-02-14T00:06:05;14.50;99.90
16863;DHT22;52193;48.216;-1.698;2024-02-14T00:08:32;14.50;99.90
16863;DHT22;52193;48.216;-1.698;2024-02-14T00:11:00;14.50;99.90
16863;DHT22;52193;48.216;-1.698;2024-02-14T00:13:27;14.50;99.90
16863;DHT22;52193;48.216;-1.698;2024-02-14T00:15:54;14.50;99.90
16863;DHT22;52193;48.216;-1.698;2024-02-14T00:18:22;14.50;99.90
16863;DHT22;52193;48.216;-1.698;2024-02-14T00:20:49;14.50;99.90
16863;DHT22;52193;48.216;-1.698;2024-02-14T00:23:15;14.50;99.90
16863;DHT22;52193;48.216;-1.698;2024-02-14T00:25:42;14.50;99.90
16863;DHT22;52193;48.216;-1.698;2024-02-14T00:28:11;14.50;99.90
16863;DHT22;52193;48.216;-1.698;2024-02-14T00:30:37;14.50;99.90
16863;DHT22;52193;48.216;-1.698;2024-02-14T00:33:04;14.50;99.90
16863;DHT22;52193;48.216;-1.698;2024-02-14T00:35:32;14.50;99.90
16863;DHT22;52193;48.216;-1.698;2024-02-14T00:37:59;14.50;99.90
16863;DHT22;52193;48.216;-1.698;2024-02-14T00:40:26;14.50;99.90
16863;DHT22;52193;48.216;-1.698;2024-02-14T00:42:52;14.50;99.90
16863;DHT22;52193;48.216;-1.698;2024-02-14T00:45:21;14.50;99.90
16863;DHT22;52193;48.216;-1.698;2024-02-14T00:47:47;14.50;99.90
16863;DHT22;52193;48.216;-1.698;2024-02-14T00:50:14;14.50;99.90
16863;DHT22;52193;48.216;-1.698;2024-02-14T00:52:42;14.50;99.90
16863;DHT22;52193;48.216;-1.698;2024-02-14T00:55:09;14.50;99.90
16863;DHT22;52193;48.216;-1.698;2024-02-14T00:57:36;14.50;99.90
16863;DHT22;52193;48.216;-1.698;2024-02-14T01:00:05;14.50;99.90
16863;DHT22;52193;48.216;-1.698;2024-02-14T01:02:33;14.50;99.90
16863;DHT22;52193;48.216;-1.698;2024-02-14T01:05:01;14.50;99.90
16863;DHT22;52193;48.216;-1.698;2024-02-14T01:07:29;14.50;99.90
16863;DHT22;52193;48.216;-1.698;2024-02-14T01:09:57;14.50;99.90
16863;DHT22;52193;48.216;-1.698;2024-02-14T01:12:24;14.50;99.90
16863;DHT22;52193;48.216;-1.698;2024-02-14T01:14:51;14.50;99.90
16863;DHT22;52193;48.216;-1.698;2024-02-14T01:17:19;14.50;99.90
16863;DHT22;52193;48.216;-1.698;2024-02-14T01:19:47;14.50;99.90
16863;DHT22;52193;48.216;-1.698;2024-02-14T01:22:14;14.50;99.90
16863;DHT22;52193;48.216;-1.698;2024-02-14T01:24:42;14.40;99.90
16863;DHT22;52193;48.216;-1.698;2024-02-14T01:27:09;14.40;99.90
16863;DHT22;52193;48.216;-1.698;2024-02-14T01:29:36;14.40;99.90
16863;DHT22;52193;48.216;-1.698;2024-02-14T01:32:03;14.40;99.90
16863;DHT22;52193;48.216;-1.698;2024-02-14T01:34:32;14.40;99.90
16863;DHT22;52193;48.216;-1.698;2024-02-14T01:37:00;14.40;99.90
16863;DHT22;52193;48.216;-1.698;2024-02-14T01:39:27;14.40;99.90
16863;DHT22;52193;48.216;-1.698;2024-02-14T01:41:54;14.40;99.90
16863;DHT22;52193;48.216;-1.698;2024-02-14T01:44:21;14.40;99.90
16863;DHT22;52193;48.216;-1.698;2024-02-14T01:46:47;14.40;99.90
16863;DHT22;52193;48.216;-1.698;2024-02-14T01:49:15;14.40;99.90
16863;DHT22;52193;48.216;-1.698;2024-02-14T01:51:43;14.40;99.90
16863;DHT22;52193;48.216;-1.698;2024-02-14T01:54:13;14.40;99.90
16863;DHT22;52193;48.216;-1.698;2024-02-14T01:56:41;14.50;99.90
16863;DHT22;52193;48.216;-1.698;2024-02-14T01:59:09;14.50;99.90
16863;DHT22;52193;48.216;-1.698;2024-02-14T02:01:36;14.50;99.90
16863;DHT22;52193;48.216;-1.698;2024-02-14T02:04:04;14.50;99.90
16863;DHT22;52193;48.216;-1.698;2024-02-14T02:06:31;14.50;99.90
16863;DHT22;52193;48.216;-1.698;2024-02-14T02:08:58;14.50;99.90
16863;DHT22;52193;48.216;-1.698;2024-02-14T02:11:27;14.50;99.90
16863;DHT22;52193;48.216;-1.698;2024-02-14T02:13:54;14.60;99.90
16863;DHT22;52193;48.216;-1.698;2024-02-14T02:16:21;14.60;99.90
16863;DHT22;52193;48.216;-1.698;2024-02-14T02:18:48;14.60;99.90
16863;DHT22;52193;48.216;-1.698;2024-02-14T02:21:15;14.60;99.90
16863;DHT22;52193;48.216;-1.698;2024-02-14T02:23:46;14.60;99.90
16863;DHT22;52193;48.216;-1.698;2024-02-14T02:26:13;14.60;99.90
16863;DHT22;52193;48.216;-1.698;2024-02-14T02:28:40;14.60;99.90
16863;DHT22;52193;48.216;-1.698;2024-02-14T02:31:08;14.60;99.90
16863;DHT22;52193;48.216;-1.698;2024-02-14T02:33:35;14.60;99.90
16863;DHT22;52193;48.216;-1.698;2024-02-14T02:36:03;14.60;99.90
16863;DHT22;52193;48.216;-1.698;2024-02-14T02:38:30;14.60;99.90
16863;DHT22;52193;48.216;-1.698;2024-02-14T02:40:58;14.60;99.90
16863;DHT22;52193;48.216;-1.698;2024-02-14T02:43:26;14.60;99.90
16863;DHT22;52193;48.216;-1.698;2024-02-14T02:45:53;14.60;99.90
16863;DHT22;52193;48.216;-1.698;2024-02-14T02:48:20;14.60;99.90
16863;DHT22;52193;48.216;-1.698;2024-02-14T02:50:48;14.60;99.90
16863;DHT22;52193;48.216;-1.698;2024-02-14T02:53:16;14.60;99.90
16863;DHT22;52193;48.216;-1.698;2024-02-14T02:55:43;14.50;99.90
16863;DHT22;52193;48.216;-1.698;2024-02-14T02:58:11;14.60;99.90
16863;DHT22;52193;48.216;-1.698;2024-02-14T03:00:39;14.60;99.90
16863;DHT22;52193;48.216;-1.698;2024-02-14T03:03:07;14.60;99.90
16863;DHT22;52193;48.216;-1.698;2024-02-14T03:05:35;14.60;99.90
16863;DHT22;52193;48.216;-1.698;2024-02-14T03:08:05;14.60;99.90
16863;DHT22;52193;48.216;-1.698;2024-02-14T03:10:33;14.50;99.90
16863;DHT22;52193;48.216;-1.698;2024-02-14T03:13:00;14.50;99.90
16863;DHT22;52193;48.216;-1.698;2024-02-14T03:15:28;14.50;99.90
16863;DHT22;52193;48.216;-1.698;2024-02-14T03:17:55;14.50;99.90
16863;DHT22;52193;48.216;-1.698;2024-02-14T03:20:22;14.50;99.90
16863;DHT22;52193;48.216;-1.698;2024-02-14T03:22:48;14.50;99.90
16863;DHT22;52193;48.216;-1.698;2024-02-14T03:25:17;14.50;99.90
16863;DHT22;52193;48.216;-1.698;2024-02-14T03:27:44;14.50;99.90
16863;DHT22;52193;48.216;-1.698;2024-02-14T03:30:13;14.50;99.90
16863;DHT22;52193;48.216;-1.698;2024-02-14T03:32:43;14.50;99.90
16863;DHT22;52193;48.216;-1.698;2024-02-14T03:35:10;14.50;99.90
16863;DHT22;52193;48.216;-1.698;2024-02-14T03:37:38;14.50;99.90
16863;DHT22;52193;48.216;-1.698;2024-02-14T03:40:07;14.50;99.90
16863;DHT22;52193;48.216;-1.698;2024-02-14T03:42:35;14.50;99.90
16863;DHT22;52193;48.216;-1.698;2024-02-14T03:45:06;14.50;99.90
16863;DHT22;52193;48.216;-1.698;2024-02-14T03:47:33;14.50;99.90
16863;DHT22;52193;48.216;-1.698;2024-02-14T03:50:01;14.50;99.90
16863;DHT22;52193;48.216;-1.698;2024-02-14T03:52:30;14.50;99.90
16863;DHT22;52193;48.216;-1.698;2024-02-14T03:54:58;14.50;99.90
16863;DHT22;52193;48.216;-1.698;2024-02-14T03:57:25;14.50;99.90
16863;DHT22;52193;48.216;-1.698;2024-02-14T03:59:54;14.50;99.90
16863;DHT22;52193;48.216;-1.698;2024-02-14T04:02:21;14.50;99.90
16863;DHT22;52193;48.216;-1.698;2024-02-14T04:04:49;14.50;99.90
16863;DHT22;52193;48.216;-1.698;2024-02-14T04:07:17;14.50;99.90
16863;DHT22;52193;48.216;-1.698;2024-02-14T04:09:44;14.50;99.90
16863;DHT22;52193;48.216;-1.698;2024-02-14T04:12:11;14.50;99.90
16863;DHT22;52193;48.216;-1.698;2024-02-14T04:14:39;14.50;99.90
16863;DHT22;52193;48.216;-1.698;2024-02-14T04:17:05;14.50;99.90
16863;DHT22;52193;48.216;-1.698;2024-02-14T04:19:33;14.50;99.90
16863;DHT22;52193;48.216;-1.698;2024-02-14T04:22:00;14.50;99.90
16863;DHT22;52193;48.216;-1.698;2024-02-14T04:24:28;14.50;99.90
16863;DHT22;52193;48.216;-1.698;2024-02-14T04:26:55;14.50;99.90
16863;DHT22;52193;48.216;-1.698;2024-02-14T04:29:22;14.50;99.90
16863;DHT22;52193;48.216;-1.698;2024-02-14T04:31:49;14.50;99.90
16863;DHT22;52193;48.216;-1.698;2024-02-14T04:34:18;14.50;99.90
16863;DHT22;52193;48.216;-1.698;2024-02-14T04:36:45;14.50;99.90
16863;DHT22;52193;48.216;-1.698;2024-02-14T04:39:12;14.50;99.90
16863;DHT22;52193;48.216;-1.698;2024-02-14T04:41:40;14.50;99.90
16863;DHT22;52193;48.216;-1.698;2024-02-14T04:44:07;14.50;99.90
16863;DHT22;52193;48.216;-1.698;2024-02-14T04:46:34;14.40;99.90
16863;DHT22;52193;48.216;-1.698;2024-02-14T04:49:01;14.40;99.90
16863;DHT22;52193;48.216;-1.698;2024-02-14T04:51:29;14.40;99.90
16863;DHT22;52193;48.216;-1.698;2024-02-14T04:53:56;14.40;99.90
16863;DHT22;52193;48.216;-1.698;2024-02-14T04:56:24;14.40;99.90
16863;DHT22;52193;48.216;-1.698;2024-02-14T04:58:53;14.40;99.90
16863;DHT22;52193;48.216;-1.698;2024-02-14T05:01:20;14.40;99.90
16863;DHT22;52193;48.216;-1.698;2024-02-14T05:03:47;14.40;99.90
16863;DHT22;52193;48.216;-1.698;2024-02-14T05:06:15;14.40;99.90
16863;DHT22;52193;48.216;-1.698;2024-02-14T05:08:42;14.40;99.90
16863;DHT22;52193;48.216;-1.698;2024-02-14T05:11:09;14.40;99.90
16863;DHT22;52193;48.216;-1.698;2024-02-14T05:13:35;14.50;99.90
16863;DHT22;52193;48.216;-1.698;2024-02-14T05:16:05;14.50;99.90
16863;DHT22;52193;48.216;-1.698;2024-02-14T05:18:36;14.50;99.90
16863;DHT22;52193;48.216;-1.698;2024-02-14T05:21:05;14.50;99.90
16863;DHT22;52193;48.216;-1.698;2024-02-14T05:23:32;14.50;99.90
16863;DHT22;52193;48.216;-1.698;2024-02-14T05:25:59;14.50;99.90
16863;DHT22;52193;48.216;-1.698;2024-02-14T05:28:27;14.50;99.90
16863;DHT22;52193;48.216;-1.698;2024-02-14T05:30:54;14.50;99.90
16863;DHT22;52193;48.216;-1.698;2024-02-14T05:33:23;14.50;99.90
16863;DHT22;52193;48.216;-1.698;2024-02-14T05:35:50;14.50;99.90
16863;DHT22;52193;48.216;-1.698;2024-02-14T05:38:17;14.50;99.90
16863;DHT22;52193;48.216;-1.698;2024-02-14T05:40:45;14.50;99.90
16863;DHT22;52193;48.216;-1.698;2024-02-14T05:43:12;14.60;99.90
16863;DHT22;52193;48.216;-1.698;2024-02-14T05:45:39;14.50;99.90
16863;DHT22;52193;48.216;-1.698;2024-02-14T05:48:06;14.50;99.90
16863;DHT22;52193;48.216;-1.698;2024-02-14T05:50:35;14.60;99.90
16863;DHT22;52193;48.216;-1.698;2024-02-14T05:53:02;14.60;99.90
16863;DHT22;52193;48.216;-1.698;2024-02-14T05:55:29;14.60;99.90
16863;DHT22;52193;48.216;-1.698;2024-02-14T05:57:56;14.60;99.90
16863;DHT22;52193;48.216;-1.698;2024-02-14T06:00:24;14.60;99.90
16863;DHT22;52193;48.216;-1.698;2024-02-14T06:02:52;14.60;99.90
16863;DHT22;52193;48.216;-1.698;2024-02-14T06:05:18;14.60;99.90
16863;DHT22;52193;48.216;-1.698;2024-02-14T06:07:47;14.60;99.90
16863;DHT22;52193;48.216;-1.698;2024-02-14T06:10:14;14.60;99.90
16863;DHT22;52193;48.216;-1.698;2024-02-14T06:12:41;14.60;99.90
16863;DHT22;52193;48.216;-1.698;2024-02-14T06:15:09;14.60;99.90
16863;DHT22;52193;48.216;-1.698;2024-02-14T06:17:36;14.60;99.90
16863;DHT22;52193;48.216;-1.698;2024-02-14T06:20:03;14.60;99.90
16863;DHT22;52193;48.216;-1.698;2024-02-14T06:22:33;14.60;99.90
16863;DHT22;52193;48.216;-1.698;2024-02-14T06:25:01;14.60;99.90
16863;DHT22;52193;48.216;-1.698;2024-02-14T06:27:30;14.60;99.90
16863;DHT22;52193;48.216;-1.698;2024-02-14T06:29:57;14.70;99.90
16863;DHT22;52193;48.216;-1.698;2024-02-14T06:32:25;14.70;99.90
16863;DHT22;52193;48.216;-1.698;2024-02-14T06:34:52;14.70;99.90
16863;DHT22;52193;48.216;-1.698;2024-02-14T06:37:18;14.70;99.90
16863;DHT22;52193;48.216;-1.698;2024-02-14T06:39:45;14.70;99.90
16863;DHT22;52193;48.216;-1.698;2024-02-14T06:42:15;14.70;99.90
16863;DHT22;52193;48.216;-1.698;2024-02-14T06:44:42;14.70;99.90
16863;DHT22;52193;48.216;-1.698;2024-02-14T06:47:09;14.70;99.90
16863;DHT22;52193;48.216;-1.698;2024-02-14T06:49:35;14.70;99.90
16863;DHT22;52193;48.216;-1.698;2024-02-14T06:52:03;14.70;99.90
16863;DHT22;52193;48.216;-1.698;2024-02-14T06:54:30;14.70;99.90
16863;DHT22;52193;48.216;-1.698;2024-02-14T06:56:57;14.70;99.90
16863;DHT22;52193;48.216;-1.698;2024-02-14T06:59:26;14.70;99.90
16863;DHT22;52193;48.216;-1.698;2024-02-14T07:01:53;14.70;99.90
16863;DHT22;52193;48.216;-1.698;2024-02-14T07:04:20;14.70;99.90
16863;DHT22;52193;48.216;-1.698;2024-02-14T07:06:51;14.70;99.90
16863;DHT22;52193;48.216;-1.698;2024-02-14T07:09:18;14.70;99.90
16863;DHT22;52193;48.216;-1.698;2024-02-14T07:11:45;14.70;99.90
16863;DHT22;52193;48.216;-1.698;2024-02-14T07:14:12;14.70;99.90
16863;DHT22;52193;48.216;-1.698;2024-02-14T07:16:40;14.60;99.90
16863;DHT22;52193;48.216;-1.698;2024-02-14T07:19:07;14.70;99.90
16863;DHT22;52193;48.216;-1.698;2024-02-14T07:21:34;14.60;99.90
16863;DHT22;52193;48.216;-1.698;2024-02-14T07:24:03;14.60;99.90
16863;DHT22;52193;48.216;-1.698;2024-02-14T07:26:30;14.60;99.90
16863;DHT22;52193;48.216;-1.698;2024-02-14T07:28:57;14.60;99.90
16863;DHT22;52193;48.216;-1.698;2024-02-14T07:31:24;14.60;99.90
16863;DHT22;52193;48.216;-1.698;2024-02-14T07:33:56;14.60;99.90
16863;DHT22;52193;48.216;-1.698;2024-02-14T07:36:23;14.60;99.90
16863;DHT22;52193;48.216;-1.698;2024-02-14T07:38:50;14.70;99.90
16863;DHT22;52193;48.216;-1.698;2024-02-14T07:41:16;14.70;99.90
16863;DHT22;52193;48.216;-1.698;2024-02-14T07:43:43;14.70;99.90
16863;DHT22;52193;48.216;-1.698;2024-02-14T07:46:10;14.70;99.90
16863;DHT22;52193;48.216;-1.698;2024-02-14T07:48:37;14.70;99.90
16863;DHT22;52193;48.216;-1.698;2024-02-14T07:51:08;14.70;99.90
16863;DHT22;52193;48.216;-1.698;2024-02-14T07:53:35;14.70;99.90
16863;DHT22;52193;48.216;-1.698;2024-02-14T07:56:02;14.70;99.90
16863;DHT22;52193;48.216;-1.698;2024-02-14T07:58:29;14.70;99.90
16863;DHT22;52193;48.216;-1.698;2024-02-14T08:00:56;14.70;99.90
16863;DHT22;52193;48.216;-1.698;2024-02-14T08:03:23;14.70;99.90
16863;DHT22;52193;48.216;-1.698;2024-02-14T08:05:50;14.70;99.90
16863;DHT22;52193;48.216;-1.698;2024-02-14T08:08:18;14.80;99.90
16863;DHT22;52193;48.216;-1.698;2024-02-14T08:10:46;14.80;99.90
16863;DHT22;52193;48.216;-1.698;2024-02-14T08:13:13;14.80;99.90
16863;DHT22;52193;48.216;-1.698;2024-02-14T08:15:41;14.80;99.90
16863;DHT22;52193;48.216;-1.698;2024-02-14T08:18:08;14.80;99.90
16863;DHT22;52193;48.216;-1.698;2024-02-14T08:20:35;14.80;99.90
16863;DHT22;52193;48.216;-1.698;2024-02-14T08:23:02;14.80;99.90
16863;DHT22;52193;48.216;-1.698;2024-02-14T08:25:31;14.90;99.90
16863;DHT22;52193;48.216;-1.698;2024-02-14T08:27:58;14.90;99.90
16863;DHT22;52193;48.216;-1.698;2024-02-14T08:30:25;14.90;99.90
16863;DHT22;52193;48.216;-1.698;2024-02-14T08:32:52;14.90;99.90
16863;DHT22;52193;48.216;-1.698;2024-02-14T08:35:19;14.90;99.90
16863;DHT22;52193;48.216;-1.698;2024-02-14T08:37:47;14.90;99.90
16863;DHT22;52193;48.216;-1.698;2024-02-14T08:40:14;14.90;99.90
16863;DHT22;52193;48.216;-1.698;2024-02-14T08:42:42;14.90;99.90
16863;DHT22;52193;48.216;-1.698;2024-02-14T08:45:09;14.90;99.90
16863;DHT22;52193;48.216;-1.698;2024-02-14T08:47:36;15.00;99.90
16863;DHT22;52193;48.216;-1.698;2024-02-14T08:50:03;15.00;99.90
16863;DHT22;52193;48.216;-1.698;2024-02-14T08:52:30;15.00;99.90
16863;DHT22;52193;48.216;-1.698;2024-02-14T08:54:57;15.00;99.90
16863;DHT22;52193;48.216;-1.698;2024-02-14T08:57:24;15.00;99.90
16863;DHT22;52193;48.216;-1.698;2024-02-14T08:59:53;15.10;99.90
16863;DHT22;52193;48.216;-1.698;2024-02-14T09:02:19;15.10;99.90
16863;DHT22;52193;48.216;-1.698;2024-02-14T09:04:46;15.10;99.90
16863;DHT22;52193;48.216;-1.698;2024-02-14T09:07:13;15.20;99.90
16863;DHT22;52193;48.216;-1.698;2024-02-14T09:09:39;15.20;99.90
16863;DHT22;52193;48.216;-1.698;2024-02-14T09:12:07;15.20;99.90
16863;DHT22;52193;48.216;-1.698;2024-02-14T09:14:33;15.20;99.90
16863;DHT22;52193;48.216;-1.698;2024-02-14T09:17:02;15.20;99.90
16863;DHT22;52193;48.216;-1.698;2024-02-14T09:19:28;15.20;99.90
16863;DHT22;52193;48.216;-1.698;2024-02-14T09:21:55;15.30;99.90
16863;DHT22;52193;48.216;-1.698;2024-02-14T09:24:22;15.30;99.90
16863;DHT22;52193;48.216;-1.698;2024-02-14T09:26:49;15.30;99.90
16863;DHT22;52193;48.216;-1.698;2024-02-14T09:29:16;15.30;99.90
16863;DHT22;52193;48.216;-1.698;2024-02-14T09:31:43;15.30;99.90
16863;DHT22;52193;48.216;-1.698;2024-02-14T09:34:14;15.40;99.90
16863;DHT22;52193;48.216;-1.698;2024-02-14T09:36:43;15.40;99.90
16863;DHT22;52193;48.216;-1.698;2024-02-14T09:39:10;15.40;99.90
16863;DHT22;52193;48.216;-1.698;2024-02-14T09:41:39;15.40;99.90
16863;DHT22;52193;48.216;-1.698;2024-02-14T09:44:06;15.40;99.90
16863;DHT22;52193;48.216;-1.698;2024-02-14T09:46:35;15.40;99.90
16863;DHT22;52193;48.216;-1.698;2024-02-14T09:49:04;15.50;99.90
16863;DHT22;52193;48.216;-1.698;2024-02-14T09:51:33;15.50;99.90
16863;DHT22;52193;48.216;-1.698;2024-02-14T09:54:00;15.50;99.90
16863;DHT22;52193;48.216;-1.698;2024-02-14T09:56:28;15.50;99.90
16863;DHT22;52193;48.216;-1.698;2024-02-14T09:58:55;15.50;99.90
16863;DHT22;52193;48.216;-1.698;2024-02-14T10:01:23;15.50;99.90
16863;DHT22;52193;48.216;-1.698;2024-02-14T10:03:50;15.50;99.90
16863;DHT22;52193;48.216;-1.698;2024-02-14T10:06:17;15.50;99.90
16863;DHT22;52193;48.216;-1.698;2024-02-14T10:08:47;15.60;99.90
16863;DHT22;52193;48.216;-1.698;2024-02-14T10:11:15;15.60;99.90
16863;DHT22;52193;48.216;-1.698;2024-02-14T10:13:44;15.60;99.90
16863;DHT22;52193;48.216;-1.698;2024-02-14T10:16:12;15.60;99.90
16863;DHT22;52193;48.216;-1.698;2024-02-14T10:18:39;15.70;99.90
16863;DHT22;52193;48.216;-1.698;2024-02-14T10:21:08;15.70;99.90
16863;DHT22;52193;48.216;-1.698;2024-02-14T10:23:35;15.70;99.90
16863;DHT22;52193;48.216;-1.698;2024-02-14T10:26:04;15.70;99.90
16863;DHT22;52193;48.216;-1.698;2024-02-14T10:28:32;15.80;99.90
16863;DHT22;52193;48.216;-1.698;2024-02-14T10:31:00;15.80;99.90
16863;DHT22;52193;48.216;-1.698;2024-02-14T10:33:28;15.90;99.90
16863;DHT22;52193;48.216;-1.698;2024-02-14T10:35:57;15.90;99.90
16863;DHT22;52193;48.216;-1.698;2024-02-14T10:38:24;15.90;99.90
16863;DHT22;52193;48.216;-1.698;2024-02-14T10:40:53;16.00;99.90
16863;DHT22;52193;48.216;-1.698;2024-02-14T10:43:22;16.00;99.90
16863;DHT22;52193;48.216;-1.698;2024-02-14T10:45:51;16.10;99.90
16863;DHT22;52193;48.216;-1.698;2024-02-14T10:48:19;16.10;99.90
16863;DHT22;52193;48.216;-1.698;2024-02-14T10:50:53;16.20;99.90
16863;DHT22;52193;48.216;-1.698;2024-02-14T10:53:23;16.20;99.90
16863;DHT22;52193;48.216;-1.698;2024-02-14T10:55:51;16.30;99.90
16863;DHT22;52193;48.216;-1.698;2024-02-14T10:58:21;16.40;99.90
16863;DHT22;52193;48.216;-1.698;2024-02-14T11:00:50;16.40;99.90
16863;DHT22;52193;48.216;-1.698;2024-02-14T11:03:17;16.50;99.90
16863;DHT22;52193;48.216;-1.698;2024-02-14T11:05:45;16.50;99.90
16863;DHT22;52193;48.216;-1.698;2024-02-14T11:08:14;16.60;99.90
16863;DHT22;52193;48.216;-1.698;2024-02-14T11:10:41;16.60;99.90
16863;DHT22;52193;48.216;-1.698;2024-02-14T11:13:10;16.70;99.90
16863;DHT22;52193;48.216;-1.698;2024-02-14T11:15:40;16.70;99.90
16863;DHT22;52193;48.216;-1.698;2024-02-14T11:18:11;16.80;99.90
16863;DHT22;52193;48.216;-1.698;2024-02-14T11:20:38;16.80;99.90
16863;DHT22;52193;48.216;-1.698;2024-02-14T11:23:07;16.80;99.90
16863;DHT22;52193;48.216;-1.698;2024-02-14T11:25:37;16.80;99.90
16863;DHT22;52193;48.216;-1.698;2024-02-14T11:28:13;16.80;99.90
16863;DHT22;52193;48.216;-1.698;2024-02-14T11:30:42;16.90;99.90
16863;DHT22;52193;48.216;-1.698;2024-02-14T11:33:16;16.90;99.90
16863;DHT22;52193;48.216;-1.698;2024-02-14T11:35:46;17.00;99.90
16863;DHT22;52193;48.216;-1.698;2024-02-14T11:38:13;17.10;99.90
16863;DHT22;52193;48.216;-1.698;2024-02-14T11:40:40;17.10;99.90
16863;DHT22;52193;48.216;-1.698;2024-02-14T11:43:11;17.10;99.90
16863;DHT22;52193;48.216;-1.698;2024-02-14T11:45:38;17.20;99.90
16863;DHT22;52193;48.216;-1.698;2024-02-14T11:48:09;17.20;99.90
16863;DHT22;52193;48.216;-1.698;2024-02-14T11:50:39;17.20;99.90
16863;DHT22;52193;48.216;-1.698;2024-02-14T11:53:06;17.20;99.90
16863;DHT22;52193;48.216;-1.698;2024-02-14T11:55:35;17.30;99.90
16863;DHT22;52193;48.216;-1.698;2024-02-14T11:58:06;17.30;99.90
16863;DHT22;52193;48.216;-1.698;2024-02-14T12:00:33;17.30;99.90
16863;DHT22;52193;48.216;-1.698;2024-02-14T12:03:01;17.30;99.90
16863;DHT22;52193;48.216;-1.698;2024-02-14T12:05:31;17.30;99.90
16863;DHT22;52193;48.216;-1.698;2024-02-14T12:07:59;17.30;99.90
16863;DHT22;52193;48.216;-1.698;2024-02-14T12:10:26;17.30;99.90
16863;DHT22;52193;48.216;-1.698;2024-02-14T12:12:53;17.30;99.90
16863;DHT22;52193;48.216;-1.698;2024-02-14T12:15:20;17.30;99.90
16863;DHT22;52193;48.216;-1.698;2024-02-14T12:17:47;17.30;99.90
16863;DHT22;52193;48.216;-1.698;2024-02-14T12:20:15;17.30;99.90
16863;DHT22;52193;48.216;-1.698;2024-02-14T12:22:43;17.30;99.90
16863;DHT22;52193;48.216;-1.698;2024-02-14T12:25:10;17.40;99.90
16863;DHT22;52193;48.216;-1.698;2024-02-14T12:27:37;17.40;99.90
16863;DHT22;52193;48.216;-1.698;2024-02-14T12:30:06;17.40;99.90
16863;DHT22;52193;48.216;-1.698;2024-02-14T12:32:33;17.40;99.90
16863;DHT22;52193;48.216;-1.698;2024-02-14T12:35:00;17.40;99.90
16863;DHT22;52193;48.216;-1.698;2024-02-14T12:37:27;17.40;99.90
16863;DHT22;52193;48.216;-1.698;2024-02-14T12:39:56;17.40;99.90
16863;DHT22;52193;48.216;-1.698;2024-02-14T12:42:23;17.40;99.90
16863;DHT22;52193;48.216;-1.698;2024-02-14T12:44:54;17.40;99.90
16863;DHT22;52193;48.216;-1.698;2024-02-14T12:47:21;17.40;99.90
16863;DHT22;52193;48.216;-1.698;2024-02-14T12:49:48;17.40;99.90
16863;DHT22;52193;48.216;-1.698;2024-02-14T12:52:15;17.40;99.90
16863;DHT22;52193;48.216;-1.698;2024-02-14T12:54:43;17.50;99.90
16863;DHT22;52193;48.216;-1.698;2024-02-14T12:57:12;17.50;99.90
16863;DHT22;52193;48.216;-1.698;2024-02-14T12:59:39;17.50;99.90
16863;DHT22;52193;48.216;-1.698;2024-02-14T13:02:06;17.50;99.90
16863;DHT22;52193;48.216;-1.698;2024-02-14T13:04:33;17.60;99.90
16863;DHT22;52193;48.216;-1.698;2024-02-14T13:07:00;17.60;99.90
16863;DHT22;52193;48.216;-1.698;2024-02-14T13:09:27;17.60;99.90
16863;DHT22;52193;48.216;-1.698;2024-02-14T13:11:54;17.70;99.90
16863;DHT22;52193;48.216;-1.698;2024-02-14T13:14:23;17.70;99.90
16863;DHT22;52193;48.216;-1.698;2024-02-14T13:16:50;17.70;99.90
16863;DHT22;52193;48.216;-1.698;2024-02-14T13:19:17;17.80;99.90
16863;DHT22;52193;48.216;-1.698;2024-02-14T13:21:44;17.80;99.90
16863;DHT22;52193;48.216;-1.698;2024-02-14T13:24:13;17.80;99.90
16863;DHT22;52193;48.216;-1.698;2024-02-14T13:26:40;17.90;99.90
16863;DHT22;52193;48.216;-1.698;2024-02-14T13:29:07;17.90;99.90
16863;DHT22;52193;48.216;-1.698;2024-02-14T13:31:35;18.00;99.90
16863;DHT22;52193;48.216;-1.698;2024-02-14T13:34:02;18.10;99.90
16863;DHT22;52193;48.216;-1.698;2024-02-14T13:36:30;18.20;99.90
16863;DHT22;52193;48.216;-1.698;2024-02-14T13:38:57;18.30;99.90
16863;DHT22;52193;48.216;-1.698;2024-02-14T13:41:26;18.40;99.90
16863;DHT22;52193;48.216;-1.698;2024-02-14T13:43:53;18.40;99.90
16863;DHT22;52193;48.216;-1.698;2024-02-14T13:46:20;18.50;99.90
16863;DHT22;52193;48.216;-1.698;2024-02-14T13:48:48;18.60;99.90
16863;DHT22;52193;48.216;-1.698;2024-02-14T13:51:15;18.60;99.90
16863;DHT22;52193;48.216;-1.698;2024-02-14T13:53:42;18.70;99.90
16863;DHT22;52193;48.216;-1.698;2024-02-14T13:56:09;18.60;99.90
16863;DHT22;52193;48.216;-1.698;2024-02-14T13:58:36;18.60;99.90
16863;DHT22;52193;48.216;-1.698;2024-02-14T14:01:04;18.60;99.90
16863;DHT22;52193;48.216;-1.698;2024-02-14T14:03:32;18.50;99.90
16863;DHT22;52193;48.216;-1.698;2024-02-14T14:06:02;18.50;99.90
16863;DHT22;52193;48.216;-1.698;2024-02-14T14:08:30;18.40;99.90
16863;DHT22;52193;48.216;-1.698;2024-02-14T14:10:57;18.50;99.90
16863;DHT22;52193;48.216;-1.698;2024-02-14T14:13:24;18.50;99.90
16863;DHT22;52193;48.216;-1.698;2024-02-14T14:15:54;18.50;99.90
16863;DHT22;52193;48.216;-1.698;2024-02-14T14:18:22;18.50;99.90
16863;DHT22;52193;48.216;-1.698;2024-02-14T14:20:49;18.50;99.90
16863;DHT22;52193;48.216;-1.698;2024-02-14T14:23:17;18.60;99.90
16863;DHT22;52193;48.216;-1.698;2024-02-14T14:25:44;18.60;99.90
16863;DHT22;52193;48.216;-1.698;2024-02-14T14:28:11;18.60;99.90
16863;DHT22;52193;48.216;-1.698;2024-02-14T14:30:37;18.60;99.90
16863;DHT22;52193;48.216;-1.698;2024-02-14T14:33:05;18.50;99.90
16863;DHT22;52193;48.216;-1.698;2024-02-14T14:35:33;18.50;99.90
16863;DHT22;52193;48.216;-1.698;2024-02-14T14:38:01;18.50;99.90
16863;DHT22;52193;48.216;-1.698;2024-02-14T14:40:30;18.50;99.90
16863;DHT22;52193;48.216;-1.698;2024-02-14T14:42:57;18.40;99.90
16863;DHT22;52193;48.216;-1.698;2024-02-14T14:45:24;18.40;99.90
16863;DHT22;52193;48.216;-1.698;2024-02-14T14:47:53;18.30;99.90
16863;DHT22;52193;48.216;-1.698;2024-02-14T14:50:21;18.20;99.90
16863;DHT22;52193;48.216;-1.698;2024-02-14T14:52:48;18.20;99.90
16863;DHT22;52193;48.216;-1.698;2024-02-14T14:55:15;18.20;99.90
16863;DHT22;52193;48.216;-1.698;2024-02-14T14:57:43;18.10;99.90
16863;DHT22;52193;48.216;-1.698;2024-02-14T15:00:11;18.10;99.90
16863;DHT22;52193;48.216;-1.698;2024-02-14T15:02:38;18.00;99.90
16863;DHT22;52193;48.216;-1.698;2024-02-14T15:05:08;18.00;99.90
16863;DHT22;52193;48.216;-1.698;2024-02-14T15:07:35;18.00;99.90
16863;DHT22;52193;48.216;-1.698;2024-02-14T15:10:03;18.00;99.90
16863;DHT22;52193;48.216;-1.698;2024-02-14T15:12:30;18.00;99.90
16863;DHT22;52193;48.216;-1.698;2024-02-14T15:15:01;17.90;99.90
16863;DHT22;52193;48.216;-1.698;2024-02-14T15:17:28;18.00;99.90